createdAt,value
2018-07-10T00:03:45.240Z,19.20
2018-07-10T00:10:01.842Z,19.10
2018-07-10T00:15:04.988Z,19.10
2018-07-10T00:20:08.112Z,19.10
2018-07-10T00:25:11.217Z,19.10
2018-07-10T00:30:14.383Z,19.00
2018-07-10T00:35:17.476Z,19.00
2018-07-10T00:40:20.609Z,19.00
2018-07-10T00:45:23.716Z,19.00
2018-07-10T00:50:26.834Z,19.00
2018-07-10T00:55:29.961Z,19.00
2018-07-10T01:00:34.244Z,19.00
2018-07-10T01:05:37.389Z,18.90
2018-07-10T01:15:43.380Z,18.90
2018-07-10T01:25:49.836Z,18.80
2018-07-10T01:30:52.999Z,18.80
2018-07-10T01:35:56.467Z,18.70
2018-07-10T01:40:59.624Z,18.70
2018-07-10T01:46:02.727Z,18.60
2018-07-10T01:51:05.885Z,18.60
2018-07-10T01:56:08.993Z,18.60
2018-07-10T02:01:12.103Z,18.50
2018-07-10T02:06:15.219Z,18.50
2018-07-10T02:11:18.324Z,18.50
2018-07-10T02:16:21.542Z,18.50
2018-07-10T02:21:24.678Z,18.40
2018-07-10T02:26:28.352Z,18.40
2018-07-10T02:31:31.484Z,18.40
2018-07-10T02:36:34.877Z,18.30
2018-07-10T02:46:40.883Z,18.30
2018-07-10T02:51:51.278Z,18.30
2018-07-10T02:56:56.008Z,18.20
2018-07-10T03:01:59.142Z,18.20
2018-07-10T03:07:02.331Z,18.10
2018-07-10T03:12:05.470Z,18.10
2018-07-10T03:17:09.148Z,18.00
2018-07-10T03:22:12.295Z,18.00
2018-07-10T03:27:15.585Z,18.00
2018-07-10T03:32:18.706Z,17.90
2018-07-10T03:37:21.849Z,17.80
2018-07-10T03:42:26.701Z,17.80
2018-07-10T03:47:29.827Z,17.80
2018-07-10T03:52:35.779Z,17.70
2018-07-10T03:57:39.001Z,17.70
2018-07-10T04:02:44.104Z,17.70
2018-07-10T04:07:48.522Z,17.60
2018-07-10T04:12:51.648Z,17.60
2018-07-10T04:18:04.192Z,17.70
2018-07-10T04:23:07.429Z,17.60
2018-07-10T04:28:15.014Z,17.60
2018-07-10T04:33:18.201Z,17.70
2018-07-10T04:38:26.296Z,17.70
2018-07-10T04:43:30.944Z,17.70
2018-07-10T04:48:36.486Z,17.80
2018-07-10T04:53:42.516Z,17.80
2018-07-10T04:58:46.497Z,17.90
2018-07-10T05:03:49.625Z,17.90
2018-07-10T05:08:52.782Z,18.00
2018-07-10T05:13:55.904Z,18.00
2018-07-10T05:18:59.073Z,18.00
2018-07-10T05:24:02.309Z,18.00
2018-07-10T05:29:05.504Z,18.10
2018-07-10T05:34:08.600Z,18.10
2018-07-10T05:39:11.737Z,18.20
2018-07-10T05:44:22.632Z,18.20
2018-07-10T05:49:25.795Z,18.20
2018-07-10T05:54:28.937Z,18.20
2018-07-10T05:59:32.058Z,18.30
2018-07-10T06:04:35.794Z,18.30
2018-07-10T06:09:38.902Z,18.40
2018-07-10T06:14:42.117Z,18.40
2018-07-10T06:19:45.259Z,18.40
2018-07-10T06:29:58.361Z,18.50
2018-07-10T06:35:07.414Z,18.50
2018-07-10T06:40:10.537Z,18.50
2018-07-10T06:45:13.668Z,18.40
2018-07-10T06:50:20.282Z,18.50
2018-07-10T06:55:23.393Z,18.50
2018-07-10T07:00:26.792Z,18.50
2018-07-10T07:05:29.981Z,18.50
2018-07-10T07:10:33.106Z,18.50
2018-07-10T07:15:36.246Z,18.50
2018-07-10T07:20:39.559Z,18.50
2018-07-10T07:25:42.701Z,18.50
2018-07-10T07:30:45.835Z,18.50
2018-07-10T07:35:48.992Z,18.50
2018-07-10T07:40:52.333Z,18.60
2018-07-10T07:45:55.467Z,18.60
2018-07-10T07:50:58.612Z,18.70
2018-07-10T08:06:07.978Z,18.70
2018-07-10T08:16:14.185Z,18.80
2018-07-10T08:26:20.394Z,18.90
2018-07-10T08:31:23.573Z,18.90
2018-07-10T08:36:26.709Z,19.00
2018-07-10T08:41:39.706Z,19.00
2018-07-10T08:46:44.093Z,19.10
2018-07-10T08:51:49.032Z,19.10
2018-07-10T08:56:52.925Z,19.20
2018-07-10T09:01:56.054Z,19.20
2018-07-10T09:06:59.193Z,19.40
2018-07-10T09:12:02.805Z,19.50
2018-07-10T09:17:06.169Z,19.60
2018-07-10T09:22:12.292Z,19.80
2018-07-10T09:27:16.569Z,19.90
2018-07-10T09:32:26.099Z,20.10
2018-07-10T09:37:35.883Z,20.30
2018-07-10T09:42:43.257Z,20.60
2018-07-10T09:47:46.403Z,20.80
2018-07-10T09:52:49.595Z,21.00
2018-07-10T09:57:54.838Z,21.10
2018-07-10T10:02:58.281Z,21.40
2018-07-10T10:08:01.422Z,21.70
2018-07-10T10:13:04.587Z,22.10
2018-07-10T10:18:08.928Z,22.30
2018-07-10T10:28:16.357Z,22.60
2018-07-10T10:33:19.493Z,22.80
2018-07-10T10:38:22.949Z,23.00
2018-07-10T10:43:26.084Z,23.20
2018-07-10T10:48:29.246Z,23.40
2018-07-10T10:53:32.366Z,23.70
2018-07-10T10:58:35.539Z,23.90
2018-07-10T11:03:38.834Z,24.10
2018-07-10T11:08:42.047Z,24.20
2018-07-10T11:18:50.580Z,24.20
2018-07-10T11:23:59.241Z,24.30
2018-07-10T11:29:02.900Z,24.20
2018-07-10T11:34:06.802Z,24.10
2018-07-10T11:39:12.325Z,24.10
2018-07-10T11:44:15.453Z,24.00
2018-07-10T11:49:18.616Z,23.80
2018-07-10T11:54:21.753Z,23.60
2018-07-10T11:59:24.895Z,23.40
2018-07-10T12:04:28.026Z,23.20
2018-07-10T12:09:31.168Z,22.90
2018-07-10T12:14:34.430Z,22.70
2018-07-10T12:19:37.586Z,22.50
2018-07-10T12:24:40.754Z,22.40
2018-07-10T12:29:43.956Z,22.40
2018-07-10T12:34:47.127Z,22.30
2018-07-10T12:39:50.250Z,22.20
2018-07-10T12:44:53.405Z,22.30
2018-07-10T12:49:56.559Z,22.20
2018-07-10T12:55:00.615Z,22.30
2018-07-10T13:00:04.167Z,22.60
2018-07-10T13:05:07.848Z,22.80
2018-07-10T13:10:11.180Z,22.90
2018-07-10T13:15:14.462Z,22.90
2018-07-10T13:20:18.161Z,22.90
2018-07-10T13:25:21.373Z,22.80
2018-07-10T13:30:24.783Z,22.80
2018-07-10T13:35:28.124Z,22.80
2018-07-10T13:40:31.750Z,22.80
2018-07-10T13:45:34.913Z,22.80
2018-07-10T13:50:38.121Z,23.00
2018-07-10T13:55:41.274Z,23.10
2018-07-10T14:00:50.644Z,23.30
2018-07-10T14:05:53.798Z,23.50
2018-07-10T14:10:56.956Z,23.80
2018-07-10T14:16:00.074Z,24.10
2018-07-10T14:21:06.658Z,24.40
2018-07-10T14:26:09.822Z,24.60
2018-07-10T14:31:12.978Z,24.80
2018-07-10T14:36:16.128Z,25.20
2018-07-10T14:41:19.358Z,25.40
2018-07-10T14:46:23.501Z,25.60
2018-07-10T14:51:31.565Z,25.80
2018-07-10T14:56:34.813Z,25.90
2018-07-10T15:01:38.965Z,26.10
2018-07-10T15:06:42.117Z,26.10
2018-07-10T15:11:45.274Z,26.20
2018-07-10T15:16:53.702Z,26.00
2018-07-10T15:21:56.829Z,25.90
2018-07-10T15:26:59.977Z,25.50
2018-07-10T15:32:03.138Z,25.20
2018-07-10T15:37:06.321Z,25.10
2018-07-10T15:42:09.468Z,24.90
2018-07-10T15:47:12.661Z,24.60
2018-07-10T15:52:15.824Z,24.40
2018-07-10T15:57:18.949Z,24.30
2018-07-10T16:02:22.140Z,24.20
2018-07-10T16:07:25.308Z,24.20
2018-07-10T16:12:28.421Z,24.10
2018-07-10T16:17:31.561Z,24.00
2018-07-10T16:22:38.363Z,24.00
2018-07-10T16:27:42.583Z,23.80
2018-07-10T16:32:45.802Z,23.70
2018-07-10T16:37:49.938Z,23.60
2018-07-10T16:42:54.897Z,23.40
2018-07-10T16:49:18.860Z,23.30
2018-07-10T16:54:21.993Z,23.20
2018-07-10T16:59:26.238Z,23.10
2018-07-10T17:04:29.356Z,23.00
2018-07-10T17:09:32.632Z,23.00
2018-07-10T17:14:35.773Z,23.00
2018-07-10T17:19:38.872Z,22.90
2018-07-10T17:24:42.017Z,22.80
2018-07-10T17:29:45.157Z,22.70
2018-07-10T17:34:48.394Z,22.60
2018-07-10T17:44:54.540Z,22.60
2018-07-10T17:49:57.686Z,22.50
2018-07-10T17:55:00.816Z,22.50
2018-07-10T18:00:04.735Z,22.50
2018-07-10T18:05:07.890Z,22.50
2018-07-10T18:10:11.035Z,22.40
2018-07-10T18:15:14.162Z,22.30
2018-07-10T18:20:17.297Z,22.40
2018-07-10T18:25:20.430Z,22.40
2018-07-10T18:30:23.750Z,22.30
2018-07-10T18:35:26.773Z,22.30
2018-07-10T18:40:29.933Z,22.30
2018-07-10T18:45:33.062Z,22.30
2018-07-10T18:50:36.214Z,22.30
2018-07-10T18:55:39.441Z,22.30
2018-07-10T19:01:49.826Z,22.30
2018-07-10T19:06:52.957Z,22.20
2018-07-10T19:11:56.129Z,22.10
2018-07-10T19:16:59.450Z,22.00
2018-07-10T19:22:04.038Z,22.00
2018-07-10T19:27:07.176Z,22.00
2018-07-10T19:32:10.318Z,22.00
2018-07-10T19:37:13.454Z,21.90
2018-07-10T19:42:16.597Z,21.80
2018-07-10T19:52:24.261Z,21.70
2018-07-10T19:57:36.097Z,21.60
2018-07-10T20:02:39.234Z,21.50
2018-07-10T20:07:48.448Z,21.40
2018-07-10T20:13:04.149Z,21.30
2018-07-10T20:18:15.363Z,21.20
2018-07-10T20:30:49.871Z,21.00
2018-07-10T20:35:53.040Z,20.90
2018-07-10T20:45:59.280Z,20.70
2018-07-10T20:51:05.517Z,20.70
2018-07-10T20:56:18.925Z,20.60
2018-07-10T21:01:28.381Z,20.50
2018-07-10T21:06:37.490Z,20.50
2018-07-10T21:11:49.584Z,20.40
2018-07-10T21:17:09.000Z,20.50
2018-07-10T21:22:19.223Z,20.30
2018-07-10T21:27:29.243Z,20.20
2018-07-10T21:32:39.025Z,20.00
2018-07-10T21:37:52.071Z,20.00
2018-07-10T21:50:27.484Z,19.80
2018-07-10T21:55:30.632Z,19.80
2018-07-10T22:00:45.338Z,19.70
2018-07-10T22:05:48.966Z,19.60
2018-07-10T22:15:55.093Z,19.60
2018-07-10T22:20:58.816Z,19.50
2018-07-10T22:26:01.948Z,19.50
2018-07-10T22:31:10.520Z,19.50
2018-07-10T22:36:20.954Z,19.50
2018-07-10T22:41:24.604Z,19.50
2018-07-10T22:46:27.733Z,19.40
2018-07-10T22:51:31.049Z,19.40
2018-07-10T22:56:34.943Z,19.30
2018-07-10T23:01:38.065Z,19.20
2018-07-10T23:06:41.194Z,19.20
2018-07-10T23:11:44.296Z,19.20
2018-07-10T23:16:47.416Z,19.20
2018-07-10T23:21:50.518Z,19.20
2018-07-10T23:26:53.640Z,19.20
2018-07-10T23:31:56.748Z,19.20
2018-07-10T23:37:00.608Z,19.20
2018-07-10T23:42:05.005Z,19.30
